Time;durP1;ratioP1;P1;durP2;ratioP2;P2;SDS_P1;SDS_P2;PMS_P1;PMS_P2;Temp;Humidity;BMP_temperature;BMP_pressure;BME280_temperature;BME280_humidity;BME280_pressure;Samples;Min_cycle;Max_cycle;Signal;HPM_P1;HPM_P2
2022/12/13 00:00:17;;;;;;;1.02;0.90;;;;;;;;;;4928394;29;20050;-40
2022/12/13 00:02:44;;;;;;;0.90;0.80;;;;;;;;;;4924544;29;20027;-41
2022/12/13 00:05:09;;;;;;;1.05;1.05;;;;;;;;;;4931365;28;20044;-41
2022/12/13 00:07:35;;;;;;;1.02;1.02;;;;;;;;;;4927052;29;20105;-41
2022/12/13 00:10:01;;;;;;;0.80;0.80;;;;;;;;;;4930799;28;20375;-41
2022/12/13 00:12:27;;;;;;;1.02;0.98;;;;;;;;;;4928140;29;20095;-41
2022/12/13 00:14:52;;;;;;;2.03;1.70;;;;;;;;;;4928548;28;20068;-41
2022/12/13 00:17:18;;;;;;;1.33;1.23;;;;;;;;;;4928594;29;20044;-41
2022/12/13 00:19:45;;;;;;;1.42;1.23;;;;;;;;;;4929187;28;20051;-41
2022/12/13 00:22:11;;;;;;;5.05;1.90;;;;;;;;;;4929616;28;20506;-41
2022/12/13 00:24:36;;;;;;;4.13;2.63;;;;;;;;;;4929940;29;20052;-40
2022/12/13 00:27:02;;;;;;;2.10;1.90;;;;;;;;;;4928741;29;20054;-41
2022/12/13 00:29:27;;;;;;;1.70;1.60;;;;;;;;;;4928951;28;20107;-44
2022/12/13 00:31:53;;;;;;;1.65;1.50;;;;;;;;;;4928955;29;20046;-41
2022/12/13 00:34:18;;;;;;;1.35;1.25;;;;;;;;;;4928658;29;20396;-41
2022/12/13 00:36:44;;;;;;;1.50;1.40;;;;;;;;;;4928466;29;20037;-41
2022/12/13 00:39:12;;;;;;;1.88;1.40;;;;;;;;;;4926323;28;20040;-41
2022/12/13 00:41:38;;;;;;;1.00;1.00;;;;;;;;;;4928176;29;20038;-42
2022/12/13 00:44:04;;;;;;;1.38;1.25;;;;;;;;;;4929256;28;20043;-40
2022/12/13 00:46:30;;;;;;;0.90;0.90;;;;;;;;;;4928106;29;20117;-41
2022/12/13 00:48:58;;;;;;;1.40;1.20;;;;;;;;;;4930230;28;20079;-41
2022/12/13 00:51:25;;;;;;;1.98;1.50;;;;;;;;;;4932241;29;20490;-43
2022/12/13 00:53:51;;;;;;;1.45;1.35;;;;;;;;;;4926125;29;20052;-41
2022/12/13 00:56:24;;;;;;;1.08;1.08;;;;;;;;;;4933415;29;20419;-41
2022/12/13 00:58:49;;;;;;;1.70;1.15;;;;;;;;;;4932656;28;20502;-42
2022/12/13 01:01:17;;;;;;;1.02;1.00;;;;;;;;;;4932579;29;20035;-39
2022/12/13 01:03:43;;;;;;;0.82;0.80;;;;;;;;;;4933768;28;20047;-41
2022/12/13 01:06:21;;;;;;;0.82;0.82;;;;;;;;;;4932288;29;20115;-42
2022/12/13 01:08:48;;;;;;;0.95;0.95;;;;;;;;;;4932922;29;20079;-41
2022/12/13 01:11:14;;;;;;;1.45;1.35;;;;;;;;;;4933339;29;20078;-41
2022/12/13 01:13:40;;;;;;;1.00;1.00;;;;;;;;;;4931807;28;20049;-41
2022/12/13 01:16:08;;;;;;;1.13;1.13;;;;;;;;;;4932512;29;20021;-44
2022/12/13 01:18:34;;;;;;;1.10;1.00;;;;;;;;;;4929058;28;20780;-42
2022/12/13 01:21:11;;;;;;;0.80;0.80;;;;;;;;;;4932375;29;20123;-40
2022/12/13 01:23:37;;;;;;;1.08;1.08;;;;;;;;;;4931474;28;20506;-42
2022/12/13 01:26:07;;;;;;;1.00;1.00;;;;;;;;;;4930774;29;20054;-41
2022/12/13 01:28:32;;;;;;;0.77;0.68;;;;;;;;;;4932976;28;20052;-41
2022/12/13 01:31:02;;;;;;;1.33;1.10;;;;;;;;;;4930748;29;20051;-42
2022/12/13 01:33:28;;;;;;;2.40;1.60;;;;;;;;;;4931188;28;20118;-43
2022/12/13 01:35:54;;;;;;;0.70;0.70;;;;;;;;;;4931499;29;20024;-46
2022/12/13 01:38:19;;;;;;;1.05;0.98;;;;;;;;;;4931526;28;20047;-41
2022/12/13 01:40:48;;;;;;;1.25;1.00;;;;;;;;;;4931122;29;20078;-41
2022/12/13 01:43:14;;;;;;;0.98;0.90;;;;;;;;;;4933610;28;20127;-41
2022/12/13 01:45:41;;;;;;;0.85;0.80;;;;;;;;;;4933192;28;20060;-41
2022/12/13 01:48:13;;;;;;;0.70;0.70;;;;;;;;;;4927741;28;20036;-41
2022/12/13 01:50:44;;;;;;;0.93;0.70;;;;;;;;;;4928779;29;20390;-41
2022/12/13 01:53:15;;;;;;;1.25;0.77;;;;;;;;;;4932304;28;20509;-44
2022/12/13 01:55:45;;;;;;;0.68;0.57;;;;;;;;;;4929845;29;20040;-42
2022/12/13 01:58:12;;;;;;;0.70;0.70;;;;;;;;;;4927553;29;20048;-41
2022/12/13 02:00:39;;;;;;;0.50;0.50;;;;;;;;;;4932592;29;20024;-41
2022/12/13 02:03:05;;;;;;;0.50;0.50;;;;;;;;;;4927020;28;20023;-41
2022/12/13 02:05:33;;;;;;;0.40;0.40;;;;;;;;;;4932583;29;20516;-41
2022/12/13 02:08:01;;;;;;;0.38;0.38;;;;;;;;;;4929340;28;20028;-43
2022/12/13 02:10:28;;;;;;;0.47;0.47;;;;;;;;;;4930921;29;20253;-42
2022/12/13 02:12:54;;;;;;;0.40;0.40;;;;;;;;;;4930801;28;20027;-41
2022/12/13 02:15:20;;;;;;;0.40;0.40;;;;;;;;;;4930057;29;20028;-41
2022/12/13 02:18:17;;;;;;;0.60;0.60;;;;;;;;;;4923968;29;20042;-40
2022/12/13 02:21:12;;;;;;;1.80;1.48;;;;;;;;;;4929582;29;20135;-43
2022/12/13 02:24:08;;;;;;;1.17;1.08;;;;;;;;;;4927034;28;20047;-41
2022/12/13 02:26:53;;;;;;;0.30;0.30;;;;;;;;;;4930808;29;20032;-40
2022/12/13 02:29:27;;;;;;;0.30;0.30;;;;;;;;;;4930042;28;20043;-41
2022/12/13 02:32:21;;;;;;;0.20;0.20;;;;;;;;;;4926308;29;20043;-40
2022/12/13 02:34:54;;;;;;;0.40;0.40;;;;;;;;;;4927088;29;20074;-41
2022/12/13 02:37:28;;;;;;;0.20;0.20;;;;;;;;;;4929194;29;20126;-41
2022/12/13 02:39:59;;;;;;;0.30;0.30;;;;;;;;;;4927617;28;20064;-42
2022/12/13 02:42:32;;;;;;;0.10;0.10;;;;;;;;;;4932656;29;20028;-42
2022/12/13 02:45:10;;;;;;;0.30;0.30;;;;;;;;;;4928132;28;20055;-44
2022/12/13 02:47:38;;;;;;;0.30;0.30;;;;;;;;;;4931413;29;20040;-44
2022/12/13 02:50:06;;;;;;;0.20;0.20;;;;;;;;;;4931522;28;20394;-41
2022/12/13 02:52:33;;;;;;;0.30;0.30;;;;;;;;;;4927900;29;20071;-42
2022/12/13 02:54:58;;;;;;;0.30;0.30;;;;;;;;;;4930843;28;20050;-41
2022/12/13 02:57:36;;;;;;;0.30;0.30;;;;;;;;;;4927993;29;20024;-41
2022/12/13 03:00:14;;;;;;;0.47;0.47;;;;;;;;;;4928921;28;20506;-43
2022/12/13 03:03:34;;;;;;;0.30;0.30;;;;;;;;;;4930574;29;21226;-44
2022/12/13 03:06:35;;;;;;;0.30;0.30;;;;;;;;;;4915774;29;20056;-40
2022/12/13 03:09:09;;;;;;;0.40;0.35;;;;;;;;;;4917828;29;20044;-42
2022/12/13 03:15:15;;;;;;;0.30;0.30;;;;;;;;;;4917342;29;20055;-41
2022/12/13 03:17:46;;;;;;;0.30;0.30;;;;;;;;;;4915590;29;21031;-40
2022/12/13 03:20:21;;;;;;;0.20;0.20;;;;;;;;;;4913612;29;20051;-41
2022/12/13 03:22:46;;;;;;;0.32;0.30;;;;;;;;;;4904870;29;20562;-41
2022/12/13 03:25:13;;;;;;;0.30;0.30;;;;;;;;;;4915221;29;20060;-42
2022/12/13 03:27:39;;;;;;;0.22;0.20;;;;;;;;;;4915224;29;20044;-42
2022/12/13 03:30:05;;;;;;;0.30;0.30;;;;;;;;;;4905000;29;20048;-40
2022/12/13 03:32:30;;;;;;;0.20;0.20;;;;;;;;;;4908937;29;20423;-42
2022/12/13 03:34:56;;;;;;;0.50;0.40;;;;;;;;;;4905299;29;20113;-41
2022/12/13 03:37:21;;;;;;;0.38;0.38;;;;;;;;;;4904853;29;20028;-41
2022/12/13 03:39:46;;;;;;;0.30;0.30;;;;;;;;;;4905486;29;20052;-41
2022/12/13 03:42:12;;;;;;;0.13;0.13;;;;;;;;;;4908501;29;20035;-42
2022/12/13 03:44:37;;;;;;;0.20;0.20;;;;;;;;;;4923231;29;20398;-42
2022/12/13 03:47:03;;;;;;;0.38;0.38;;;;;;;;;;4928819;29;20510;-41
2022/12/13 03:49:28;;;;;;;0.28;0.20;;;;;;;;;;4926682;28;20072;-41
2022/12/13 03:51:53;;;;;;;0.20;0.20;;;;;;;;;;4928397;29;20118;-41
2022/12/13 03:54:19;;;;;;;0.20;0.20;;;;;;;;;;4930779;28;20040;-41
2022/12/13 03:56:44;;;;;;;0.25;0.25;;;;;;;;;;4929049;29;20047;-41
2022/12/13 03:59:09;;;;;;;1.65;0.20;;;;;;;;;;4928792;28;20122;-41
2022/12/13 04:01:35;;;;;;;0.10;0.10;;;;;;;;;;4926719;29;20529;-41
2022/12/13 04:04:00;;;;;;;0.20;0.20;;;;;;;;;;4929263;29;20039;-41
2022/12/13 04:06:25;;;;;;;2.08;0.30;;;;;;;;;;4929311;29;20034;-41
2022/12/13 04:08:51;;;;;;;0.32;0.20;;;;;;;;;;4921510;28;20077;-44
2022/12/13 04:14:00;;;;;;;0.50;0.50;;;;;;;;;;4910804;29;20048;-42
2022/12/13 04:16:26;;;;;;;0.50;0.50;;;;;;;;;;4910351;29;20024;-40
2022/12/13 04:18:52;;;;;;;0.30;0.30;;;;;;;;;;4910523;29;20044;-41
2022/12/13 04:21:17;;;;;;;0.20;0.20;;;;;;;;;;4910448;29;20039;-43
2022/12/13 04:23:43;;;;;;;0.52;0.38;;;;;;;;;;4908441;29;20048;-41
2022/12/13 04:26:09;;;;;;;0.25;0.25;;;;;;;;;;4910082;29;20028;-41
2022/12/13 04:28:34;;;;;;;0.20;0.20;;;;;;;;;;4914374;29;20037;-41
2022/12/13 04:31:00;;;;;;;0.10;0.10;;;;;;;;;;4912661;29;20084;-41
2022/12/13 04:33:25;;;;;;;0.40;0.40;;;;;;;;;;4916276;29;20058;-44
2022/12/13 04:35:51;;;;;;;0.30;0.30;;;;;;;;;;4930421;29;20144;-43
2022/12/13 04:38:16;;;;;;;0.30;0.13;;;;;;;;;;4934630;28;20040;-42
2022/12/13 04:40:42;;;;;;;0.30;0.30;;;;;;;;;;4932648;29;20442;-41
2022/12/13 04:43:07;;;;;;;0.40;0.40;;;;;;;;;;4933941;28;20031;-41
2022/12/13 04:45:33;;;;;;;0.30;0.30;;;;;;;;;;4931890;29;20773;-41
2022/12/13 04:47:58;;;;;;;0.40;0.40;;;;;;;;;;4932153;28;20039;-43
2022/12/13 04:50:23;;;;;;;0.43;0.30;;;;;;;;;;4930646;29;20056;-43
2022/12/13 04:52:49;;;;;;;0.93;0.30;;;;;;;;;;4934980;29;20042;-41
2022/12/13 04:55:14;;;;;;;0.40;0.40;;;;;;;;;;4933852;28;20059;-41
2022/12/13 04:57:40;;;;;;;0.35;0.35;;;;;;;;;;4932144;29;20024;-40
2022/12/13 05:00:08;;;;;;;0.60;0.60;;;;;;;;;;4930193;28;20152;-43
2022/12/13 05:02:34;;;;;;;0.60;0.60;;;;;;;;;;4934587;29;20031;-41
2022/12/13 05:04:59;;;;;;;0.38;0.38;;;;;;;;;;4929006;28;20043;-41
2022/12/13 05:07:25;;;;;;;0.20;0.20;;;;;;;;;;4932896;29;20020;-43
2022/12/13 05:09:51;;;;;;;1.02;0.45;;;;;;;;;;4930442;28;20041;-41
2022/12/13 05:12:16;;;;;;;0.40;0.40;;;;;;;;;;4931646;29;20470;-45
2022/12/13 05:14:41;;;;;;;0.50;0.50;;;;;;;;;;4932183;28;20039;-40
2022/12/13 05:17:07;;;;;;;0.55;0.55;;;;;;;;;;4932654;29;20514;-41
2022/12/13 05:19:32;;;;;;;3.50;2.35;;;;;;;;;;4929239;28;20165;-41
2022/12/13 05:21:59;;;;;;;3.10;1.77;;;;;;;;;;4931213;29;20157;-41
2022/12/13 05:24:24;;;;;;;3.28;2.17;;;;;;;;;;4930891;29;20066;-41
2022/12/13 05:26:50;;;;;;;0.80;0.80;;;;;;;;;;4921954;29;20478;-42
2022/12/13 05:29:16;;;;;;;0.90;0.90;;;;;;;;;;4927956;29;20051;-43
2022/12/13 05:31:41;;;;;;;1.58;1.00;;;;;;;;;;4926982;29;20032;-41
2022/12/13 05:34:07;;;;;;;1.52;1.20;;;;;;;;;;4932743;28;20048;-43
2022/12/13 05:36:32;;;;;;;0.40;0.40;;;;;;;;;;4930887;29;20379;-41
2022/12/13 05:38:57;;;;;;;1.25;0.47;;;;;;;;;;4930240;28;20124;-41
2022/12/13 05:41:23;;;;;;;0.40;0.40;;;;;;;;;;4931382;29;20466;-41
2022/12/13 05:43:50;;;;;;;0.40;0.40;;;;;;;;;;4931961;29;20067;-43
2022/12/13 05:46:15;;;;;;;1.20;0.57;;;;;;;;;;4930600;29;20104;-41
2022/12/13 05:48:41;;;;;;;0.55;0.55;;;;;;;;;;4929164;28;20160;-41
2022/12/13 05:51:07;;;;;;;0.65;0.65;;;;;;;;;;4927145;29;20052;-43
2022/12/13 05:53:32;;;;;;;0.52;0.52;;;;;;;;;;4932119;28;20469;-41
2022/12/13 05:56:01;;;;;;;0.50;0.50;;;;;;;;;;4930976;29;20023;-42
2022/12/13 05:58:27;;;;;;;0.65;0.50;;;;;;;;;;4933111;28;20040;-41
2022/12/13 06:00:53;;;;;;;1.27;0.90;;;;;;;;;;4930635;29;20079;-43
2022/12/13 06:03:18;;;;;;;0.70;0.70;;;;;;;;;;4932869;28;20051;-41
2022/12/13 06:05:44;;;;;;;0.70;0.70;;;;;;;;;;4930597;29;20031;-41
2022/12/13 06:08:10;;;;;;;0.40;0.40;;;;;;;;;;4929997;28;20023;-41
2022/12/13 06:10:36;;;;;;;0.73;0.60;;;;;;;;;;4927939;29;20043;-40
2022/12/13 06:13:03;;;;;;;2.20;0.80;;;;;;;;;;4926274;28;20042;-41
2022/12/13 06:15:28;;;;;;;1.00;0.60;;;;;;;;;;4927716;29;20525;-43
2022/12/13 06:17:54;;;;;;;1.00;0.75;;;;;;;;;;4931644;28;20031;-41
2022/12/13 06:20:20;;;;;;;0.57;0.57;;;;;;;;;;4929475;29;20031;-41
2022/12/13 06:22:45;;;;;;;0.50;0.50;;;;;;;;;;4927923;29;20027;-41
2022/12/13 06:25:11;;;;;;;0.43;0.43;;;;;;;;;;4930054;28;20043;-41
2022/12/13 06:27:36;;;;;;;0.75;0.65;;;;;;;;;;4929540;29;20086;-42
2022/12/13 06:30:01;;;;;;;0.68;0.68;;;;;;;;;;4926965;29;20035;-41
2022/12/13 06:32:27;;;;;;;0.70;0.70;;;;;;;;;;4930766;29;20071;-41
2022/12/13 06:34:52;;;;;;;0.50;0.50;;;;;;;;;;4928459;28;20142;-42
2022/12/13 06:37:18;;;;;;;1.10;1.10;;;;;;;;;;4930447;29;20060;-40
2022/12/13 06:39:43;;;;;;;1.38;1.30;;;;;;;;;;4928123;28;20043;-41
2022/12/13 06:42:17;;;;;;;3.65;1.30;;;;;;;;;;4925499;29;20494;-48
2022/12/13 06:44:43;;;;;;;1.38;1.10;;;;;;;;;;4926436;28;20517;-43
2022/12/13 06:47:09;;;;;;;1.08;1.00;;;;;;;;;;4922407;29;20052;-41
2022/12/13 06:49:34;;;;;;;0.93;0.50;;;;;;;;;;4926383;29;20135;-41
2022/12/13 06:52:00;;;;;;;0.65;0.65;;;;;;;;;;4928542;29;20497;-44
2022/12/13 06:54:25;;;;;;;1.17;0.60;;;;;;;;;;4927144;28;20040;-42
2022/12/13 06:56:50;;;;;;;0.73;0.73;;;;;;;;;;4928719;29;20042;-41
2022/12/13 06:59:16;;;;;;;1.00;1.00;;;;;;;;;;4930394;28;20084;-40
2022/12/13 07:01:41;;;;;;;0.90;0.90;;;;;;;;;;4929495;29;20038;-41
2022/12/13 07:04:09;;;;;;;1.58;1.48;;;;;;;;;;4926743;29;20058;-42
2022/12/13 07:06:35;;;;;;;1.08;1.08;;;;;;;;;;4930994;29;20028;-44
2022/12/13 07:09:00;;;;;;;0.90;0.90;;;;;;;;;;4924930;28;20050;-44
2022/12/13 07:11:29;;;;;;;0.68;0.65;;;;;;;;;;4925923;29;20035;-43
2022/12/13 07:13:55;;;;;;;1.27;0.68;;;;;;;;;;4920690;28;20036;-41
2022/12/13 07:16:22;;;;;;;1.60;1.50;;;;;;;;;;4921817;29;20031;-41
2022/12/13 07:18:53;;;;;;;4.60;1.80;;;;;;;;;;4923356;28;20051;-41
2022/12/13 07:21:18;;;;;;;1.50;1.40;;;;;;;;;;4925112;29;20035;-42
2022/12/13 07:23:43;;;;;;;1.92;1.83;;;;;;;;;;4929340;29;20044;-41
2022/12/13 07:26:09;;;;;;;2.13;1.67;;;;;;;;;;4930002;29;20055;-41
2022/12/13 07:28:36;;;;;;;2.60;2.38;;;;;;;;;;4923836;28;20513;-43
2022/12/13 07:31:03;;;;;;;1.73;1.60;;;;;;;;;;4929087;29;20047;-41
2022/12/13 07:33:29;;;;;;;2.65;2.20;;;;;;;;;;4929985;28;20503;-43
2022/12/13 07:36:06;;;;;;;2.50;2.30;;;;;;;;;;4928101;29;20082;-43
2022/12/13 07:38:35;;;;;;;2.60;2.30;;;;;;;;;;4932069;28;20043;-42
2022/12/13 07:41:01;;;;;;;2.08;1.30;;;;;;;;;;4932763;29;20039;-43
2022/12/13 07:43:28;;;;;;;1.50;1.40;;;;;;;;;;4929943;28;20055;-42
2022/12/13 07:45:57;;;;;;;2.38;1.90;;;;;;;;;;4928017;29;20039;-42
2022/12/13 07:48:22;;;;;;;2.30;2.10;;;;;;;;;;4929894;28;20075;-41
2022/12/13 07:50:48;;;;;;;3.72;3.40;;;;;;;;;;4926954;29;20082;-42
2022/12/13 07:53:13;;;;;;;3.60;3.30;;;;;;;;;;4927097;28;20513;-41
2022/12/13 07:55:38;;;;;;;2.88;2.67;;;;;;;;;;4929663;29;20023;-41
2022/12/13 07:58:12;;;;;;;3.30;3.10;;;;;;;;;;4927423;28;20497;-44
2022/12/13 08:00:42;;;;;;;3.63;2.80;;;;;;;;;;4929570;29;20020;-43
2022/12/13 08:03:08;;;;;;;4.10;2.30;;;;;;;;;;4927973;28;20035;-41
2022/12/13 08:05:35;;;;;;;4.85;3.78;;;;;;;;;;4928428;29;20497;-43
2022/12/13 08:08:03;;;;;;;2.55;2.35;;;;;;;;;;4927202;28;20386;-43
2022/12/13 08:10:28;;;;;;;6.13;2.67;;;;;;;;;;4930758;29;20166;-42
2022/12/13 08:12:54;;;;;;;2.65;2.25;;;;;;;;;;4928106;28;20115;-41
2022/12/13 08:15:20;;;;;;;2.35;2.15;;;;;;;;;;4928777;29;20028;-43
2022/12/13 08:17:46;;;;;;;4.68;2.05;;;;;;;;;;4929685;29;20032;-42
2022/12/13 08:20:12;;;;;;;1.95;1.83;;;;;;;;;;4926225;28;20063;-41
2022/12/13 08:22:38;;;;;;;3.20;2.17;;;;;;;;;;4930260;29;20118;-40
2022/12/13 08:25:03;;;;;;;2.40;2.30;;;;;;;;;;4929025;28;20538;-42
2022/12/13 08:27:29;;;;;;;3.83;1.40;;;;;;;;;;4926607;29;20470;-41
2022/12/13 08:29:55;;;;;;;1.50;1.30;;;;;;;;;;4928366;28;20040;-41
2022/12/13 08:32:20;;;;;;;3.38;1.42;;;;;;;;;;4931455;29;20042;-42
2022/12/13 08:34:46;;;;;;;3.53;1.70;;;;;;;;;;4926499;28;20055;-43
2022/12/13 08:37:11;;;;;;;1.60;1.50;;;;;;;;;;4926093;29;20036;-41
2022/12/13 08:39:38;;;;;;;3.85;2.08;;;;;;;;;;4930364;28;20051;-41
2022/12/13 08:42:12;;;;;;;2.20;2.10;;;;;;;;;;4927386;29;20043;-42
2022/12/13 08:44:38;;;;;;;3.28;2.80;;;;;;;;;;4928275;28;20036;-45
2022/12/13 08:47:03;;;;;;;2.40;2.20;;;;;;;;;;4928850;29;20023;-41
2022/12/13 08:49:28;;;;;;;2.40;2.20;;;;;;;;;;4927619;28;20056;-41
2022/12/13 08:51:54;;;;;;;1.65;1.55;;;;;;;;;;4931221;29;20498;-42
2022/12/13 08:54:19;;;;;;;1.70;1.33;;;;;;;;;;4925859;28;20066;-44
2022/12/13 08:56:44;;;;;;;8.43;2.40;;;;;;;;;;4926836;29;20448;-42
2022/12/13 08:59:10;;;;;;;4.18;1.52;;;;;;;;;;4928650;29;20091;-41
2022/12/13 09:01:35;;;;;;;2.45;1.75;;;;;;;;;;4928639;29;20031;-45
2022/12/13 09:04:01;;;;;;;5.28;3.15;;;;;;;;;;4928936;28;20707;-42
2022/12/13 09:06:26;;;;;;;8.43;4.05;;;;;;;;;;4932089;29;20031;-41
2022/12/13 09:08:53;;;;;;;5.97;3.65;;;;;;;;;;4924927;28;20051;-41
2022/12/13 09:11:19;;;;;;;2.10;1.90;;;;;;;;;;4928766;29;20036;-41
2022/12/13 09:13:44;;;;;;;17.58;10.93;;;;;;;;;;4928134;28;20395;-41
2022/12/13 09:16:13;;;;;;;5.13;3.67;;;;;;;;;;4929771;29;20024;-44
2022/12/13 09:18:39;;;;;;;4.50;3.50;;;;;;;;;;4932161;28;20513;-41
2022/12/13 09:21:10;;;;;;;3.55;2.35;;;;;;;;;;4931695;29;20020;-41
2022/12/13 09:23:36;;;;;;;4.18;2.83;;;;;;;;;;4932072;28;20529;-43
2022/12/13 09:26:01;;;;;;;2.42;2.22;;;;;;;;;;4928400;29;20031;-44
2022/12/13 09:28:30;;;;;;;2.80;1.48;;;;;;;;;;4931178;28;20406;-41
2022/12/13 09:30:57;;;;;;;1.10;1.05;;;;;;;;;;4932447;29;20403;-46
2022/12/13 09:33:22;;;;;;;1.13;1.02;;;;;;;;;;4932796;28;20036;-42
2022/12/13 09:35:48;;;;;;;3.05;2.75;;;;;;;;;;4932855;29;20042;-41
2022/12/13 09:38:13;;;;;;;6.25;3.63;;;;;;;;;;4929420;28;20047;-41
2022/12/13 09:40:42;;;;;;;3.03;2.45;;;;;;;;;;4930741;29;20020;-42
2022/12/13 09:43:21;;;;;;;4.60;2.03;;;;;;;;;;4931008;28;20031;-41
2022/12/13 09:45:49;;;;;;;3.38;2.70;;;;;;;;;;4929138;29;20032;-43
2022/12/13 09:48:19;;;;;;;3.65;2.67;;;;;;;;;;4928342;28;20508;-43
2022/12/13 09:50:46;;;;;;;2.95;2.65;;;;;;;;;;4933056;29;20053;-46
2022/12/13 09:53:15;;;;;;;3.05;2.70;;;;;;;;;;4930018;29;20070;-41
2022/12/13 09:55:44;;;;;;;18.08;7.25;;;;;;;;;;4931058;29;20059;-41
2022/12/13 09:58:36;;;;;;;21.05;8.73;;;;;;;;;;4927382;28;20028;-44
2022/12/13 10:01:04;;;;;;;16.95;6.68;;;;;;;;;;4928888;29;20044;-42
2022/12/13 10:03:30;;;;;;;33.95;11.57;;;;;;;;;;4927830;28;20114;-41
2022/12/13 10:05:58;;;;;;;20.27;7.93;;;;;;;;;;4933864;29;20086;-41
2022/12/13 10:08:40;;;;;;;14.10;6.95;;;;;;;;;;4929128;28;20048;-42
2022/12/13 10:11:06;;;;;;;15.63;6.87;;;;;;;;;;4929217;29;20050;-42
2022/12/13 10:13:54;;;;;;;15.30;7.15;;;;;;;;;;4932271;28;20805;-41
2022/12/13 10:16:30;;;;;;;10.88;4.53;;;;;;;;;;4931027;29;20038;-43
2022/12/13 10:18:55;;;;;;;4.43;3.28;;;;;;;;;;4931157;28;20126;-41
2022/12/13 10:21:34;;;;;;;3.83;2.83;;;;;;;;;;4930801;29;20110;-44
2022/12/13 10:24:26;;;;;;;4.38;3.10;;;;;;;;;;4929820;28;20123;-43
2022/12/13 10:26:52;;;;;;;5.03;2.88;;;;;;;;;;4928217;29;20046;-44
2022/12/13 10:29:18;;;;;;;6.80;3.92;;;;;;;;;;4930417;29;20094;-41
2022/12/13 10:31:46;;;;;;;2.20;1.95;;;;;;;;;;4934663;29;20035;-42
2022/12/13 10:34:36;;;;;;;3.92;2.03;;;;;;;;;;4930164;28;20616;-41
2022/12/13 10:37:22;;;;;;;1.95;1.75;;;;;;;;;;4931403;29;20050;-42
2022/12/13 10:39:47;;;;;;;1.80;1.70;;;;;;;;;;4930176;29;20059;-42
2022/12/13 10:42:18;;;;;;;1.98;1.77;;;;;;;;;;4930668;29;20422;-43
2022/12/13 10:44:44;;;;;;;3.15;2.10;;;;;;;;;;4932241;28;20040;-41
2022/12/13 10:47:09;;;;;;;3.95;2.08;;;;;;;;;;4926856;29;20047;-41
2022/12/13 10:49:47;;;;;;;4.18;3.30;;;;;;;;;;4929145;28;20035;-42
2022/12/13 10:52:26;;;;;;;3.88;3.42;;;;;;;;;;4931174;29;20042;-41
2022/12/13 10:54:53;;;;;;;6.13;3.47;;;;;;;;;;4929904;29;20067;-41
2022/12/13 10:57:19;;;;;;;3.75;2.83;;;;;;;;;;4930054;29;20524;-43
2022/12/13 10:59:47;;;;;;;5.18;3.83;;;;;;;;;;4930924;28;20419;-42
2022/12/13 11:02:34;;;;;;;5.63;2.83;;;;;;;;;;4931552;29;20032;-41
2022/12/13 11:05:26;;;;;;;6.00;3.63;;;;;;;;;;4929475;28;20047;-43
2022/12/13 11:07:54;;;;;;;13.85;5.45;;;;;;;;;;4927652;28;20035;-45
2022/12/13 11:10:20;;;;;;;4.25;2.60;;;;;;;;;;4929751;29;20036;-42
2022/12/13 11:12:46;;;;;;;13.80;4.45;;;;;;;;;;4927668;29;20023;-46
2022/12/13 11:15:21;;;;;;;10.85;3.65;;;;;;;;;;4932045;28;20588;-42
2022/12/13 11:17:50;;;;;;;3.70;3.40;;;;;;;;;;4930163;29;20434;-42
2022/12/13 11:20:29;;;;;;;3.60;1.60;;;;;;;;;;4926597;29;20390;-45
2022/12/13 11:23:17;;;;;;;1.35;1.30;;;;;;;;;;4925752;28;20027;-43
2022/12/13 11:25:44;;;;;;;2.58;1.70;;;;;;;;;;4929258;29;20028;-42
2022/12/13 11:28:25;;;;;;;16.27;8.65;;;;;;;;;;4929705;28;20031;-41
2022/12/13 11:31:12;;;;;;;10.88;6.90;;;;;;;;;;4930736;29;20098;-44
2022/12/13 11:34:02;;;;;;;7.07;4.80;;;;;;;;;;4931416;28;20814;-42
2022/12/13 11:36:36;;;;;;;4.25;3.67;;;;;;;;;;4927720;29;20039;-42
2022/12/13 11:39:24;;;;;;;7.05;4.85;;;;;;;;;;4928108;28;20047;-41
2022/12/13 11:42:13;;;;;;;10.15;4.97;;;;;;;;;;4928008;28;20090;-44
2022/12/13 11:44:51;;;;;;;3.80;3.35;;;;;;;;;;4929958;28;20062;-42
2022/12/13 11:47:33;;;;;;;7.75;4.47;;;;;;;;;;4930621;29;20043;-40
2022/12/13 11:50:00;;;;;;;;;;;;;;;;;;4927747;28;20043;-41
2022/12/13 11:52:45;;;;;;;5.28;3.50;;;;;;;;;;4927894;29;20005;-41
2022/12/13 11:55:17;;;;;;;3.10;2.22;;;;;;;;;;4928539;29;20138;-41
2022/12/13 11:58:00;;;;;;;4.32;3.47;;;;;;;;;;4928845;29;20394;-42
2022/12/13 12:00:38;;;;;;;2.33;2.10;;;;;;;;;;4929450;29;20095;-41
2022/12/13 12:03:29;;;;;;;5.10;3.00;;;;;;;;;;4923784;28;20159;-42
2022/12/13 12:06:02;;;;;;;5.60;4.07;;;;;;;;;;4928067;29;20483;-41
2022/12/13 12:08:46;;;;;;;7.03;4.80;;;;;;;;;;4926841;28;20386;-41
2022/12/13 12:11:27;;;;;;;8.70;5.03;;;;;;;;;;4928262;29;20107;-43
2022/12/13 12:13:57;;;;;;;5.45;3.92;;;;;;;;;;4928661;28;20157;-45
2022/12/13 12:16:44;;;;;;;11.63;7.53;;;;;;;;;;4929983;29;20095;-42
2022/12/13 12:19:15;;;;;;;10.95;5.85;;;;;;;;;;4931557;28;20058;-43
2022/12/13 12:21:52;;;;;;;3.60;3.03;;;;;;;;;;4933465;29;20102;-41
2022/12/13 12:24:49;;;;;;;19.27;8.10;;;;;;;;;;4928268;28;20249;-41
2022/12/13 12:27:23;;;;;;;2.45;2.17;;;;;;;;;;4930990;29;20568;-41
2022/12/13 12:30:08;;;;;;;2.42;2.22;;;;;;;;;;4930459;28;20047;-41
2022/12/13 12:32:39;;;;;;;4.47;3.65;;;;;;;;;;4928037;29;20035;-44
2022/12/13 12:35:29;;;;;;;2.22;2.03;;;;;;;;;;4928797;28;20503;-44
2022/12/13 12:38:15;;;;;;;1.73;1.63;;;;;;;;;;4927861;28;20039;-42
2022/12/13 12:40:43;;;;;;;2.97;1.48;;;;;;;;;;4927111;29;20117;-42
2022/12/13 12:43:40;;;;;;;4.93;3.42;;;;;;;;;;4927751;28;20043;-45
2022/12/13 12:46:31;;;;;;;5.38;2.20;;;;;;;;;;4924997;29;20113;-44
2022/12/13 12:49:39;;;;;;;3.78;3.45;;;;;;;;;;4925591;28;20668;-41
2022/12/13 12:52:23;;;;;;;4.05;3.42;;;;;;;;;;4936461;29;20040;-43
2022/12/13 12:55:15;;;;;;;3.47;3.17;;;;;;;;;;4930325;28;20050;-41
2022/12/13 12:58:10;;;;;;;3.85;3.25;;;;;;;;;;4932450;29;20038;-44
2022/12/13 13:01:14;;;;;;;11.93;2.53;;;;;;;;;;4925221;29;20039;-42
2022/12/13 13:03:41;;;;;;;1.92;1.80;;;;;;;;;;4911898;29;20083;-43
2022/12/13 13:06:20;;;;;;;2.00;1.90;;;;;;;;;;4911327;29;20024;-42
2022/12/13 13:08:58;;;;;;;2.22;2.00;;;;;;;;;;4909373;29;20040;-41
2022/12/13 13:11:26;;;;;;;2.30;2.10;;;;;;;;;;4912183;29;20115;-44
2022/12/13 13:14:05;;;;;;;5.90;4.38;;;;;;;;;;4911467;29;20052;-42
2022/12/13 13:16:36;;;;;;;5.60;3.20;;;;;;;;;;4911699;29;20040;-42
2022/12/13 13:19:10;;;;;;;3.90;2.50;;;;;;;;;;4911748;29;20056;-41
2022/12/13 13:21:49;;;;;;;2.40;2.20;;;;;;;;;;4910840;29;20067;-41
2022/12/13 13:24:31;;;;;;;3.00;2.70;;;;;;;;;;4894900;29;20052;-41
2022/12/13 13:27:18;;;;;;;3.03;2.72;;;;;;;;;;4911429;29;20617;-41
2022/12/13 13:29:44;;;;;;;9.52;3.08;;;;;;;;;;4911959;29;20051;-42
2022/12/13 13:32:14;;;;;;;4.60;3.05;;;;;;;;;;4911800;29;20043;-42
2022/12/13 13:34:41;;;;;;;3.60;2.67;;;;;;;;;;4922193;29;20508;-41
2022/12/13 13:37:22;;;;;;;2.17;2.08;;;;;;;;;;4932223;29;20204;-44
2022/12/13 13:39:58;;;;;;;2.33;2.13;;;;;;;;;;4914904;28;20048;-41
2022/12/13 13:42:31;;;;;;;3.60;3.20;;;;;;;;;;4912944;29;20039;-44
2022/12/13 13:45:02;;;;;;;9.07;6.22;;;;;;;;;;4910584;29;20148;-41
2022/12/13 13:47:34;;;;;;;6.68;4.72;;;;;;;;;;4913903;29;20495;-44
2022/12/13 13:50:11;;;;;;;3.15;2.85;;;;;;;;;;4911835;29;20063;-44
2022/12/13 13:53:06;;;;;;;4.85;2.42;;;;;;;;;;4910855;29;20035;-42
2022/12/13 13:55:53;;;;;;;3.03;2.72;;;;;;;;;;4911698;29;20055;-41
2022/12/13 13:58:23;;;;;;;4.13;3.22;;;;;;;;;;4910454;29;20044;-41
2022/12/13 14:01:19;;;;;;;4.75;3.05;;;;;;;;;;4910717;29;20044;-41
2022/12/13 14:04:22;;;;;;;7.88;4.70;;;;;;;;;;4911115;29;20040;-43
2022/12/13 14:07:14;;;;;;;5.13;4.40;;;;;;;;;;4911604;29;20114;-41
2022/12/13 14:10:00;;;;;;;4.18;3.15;;;;;;;;;;4910472;29;20063;-41
2022/12/13 14:12:53;;;;;;;3.75;2.72;;;;;;;;;;4910502;29;20067;-41
2022/12/13 14:15:40;;;;;;;4.93;3.35;;;;;;;;;;4910715;29;20052;-43
2022/12/13 14:18:52;;;;;;;3.45;2.95;;;;;;;;;;4908986;28;20129;-43
2022/12/13 14:21:50;;;;;;;4.20;2.38;;;;;;;;;;4908340;29;20036;-41
2022/12/13 14:24:33;;;;;;;2.33;2.13;;;;;;;;;;4912430;29;20122;-42
2022/12/13 14:27:35;;;;;;;2.13;1.92;;;;;;;;;;4909729;29;20185;-42
2022/12/13 14:30:00;;;;;;;2.38;2.17;;;;;;;;;;4910536;29;20047;-41
2022/12/13 14:32:29;;;;;;;2.20;1.95;;;;;;;;;;4890636;29;20049;-41
2022/12/13 14:34:55;;;;;;;2.08;1.95;;;;;;;;;;4868530;29;20041;-42
2022/12/13 14:37:30;;;;;;;7.80;5.75;;;;;;;;;;4871177;29;20139;-41
2022/12/13 14:39:56;;;;;;;5.57;2.95;;;;;;;;;;4873250;29;20053;-41
2022/12/13 14:42:32;;;;;;;2.60;2.40;;;;;;;;;;4874830;29;20100;-42
2022/12/13 14:45:24;;;;;;;9.93;5.60;;;;;;;;;;4869769;29;20045;-43
2022/12/13 14:47:51;;;;;;;7.57;4.85;;;;;;;;;;4872633;29;20131;-41
2022/12/13 14:50:17;;;;;;;22.00;9.80;;;;;;;;;;4869704;29;20095;-41
2022/12/13 14:52:44;;;;;;;8.70;4.70;;;;;;;;;;4872616;29;20056;-42
2022/12/13 14:55:23;;;;;;;8.07;5.57;;;;;;;;;;4869303;29;20048;-41
2022/12/13 14:57:54;;;;;;;2.65;2.35;;;;;;;;;;4869472;29;20037;-41
2022/12/13 15:00:26;;;;;;;2.72;2.50;;;;;;;;;;4913007;29;20125;-41
2022/12/13 15:02:55;;;;;;;11.65;6.30;;;;;;;;;;4928608;28;20031;-42
2022/12/13 15:05:31;;;;;;;25.15;10.80;;;;;;;;;;4928468;29;20024;-41
2022/12/13 15:07:57;;;;;;;12.52;6.65;;;;;;;;;;4929754;28;20032;-41
2022/12/13 15:10:45;;;;;;;5.40;3.83;;;;;;;;;;4929112;29;20051;-41
2022/12/13 15:13:28;;;;;;;5.57;4.18;;;;;;;;;;4926989;28;20482;-41